createdAt,value
2023-05-14T06:53:49.130Z,13.20
2023-05-14T06:56:16.881Z,13.50
2023-05-14T06:58:44.464Z,13.80
2023-05-14T07:01:12.075Z,14.10
2023-05-14T07:05:18.122Z,14.30
2023-05-14T07:07:45.933Z,14.60
2023-05-14T07:10:13.524Z,14.60
2023-05-14T07:12:41.151Z,14.70
2023-05-14T07:15:09.534Z,14.60
2023-05-14T07:17:37.824Z,14.60
2023-05-14T07:20:06.290Z,14.60
2023-05-14T07:22:33.927Z,14.80
2023-05-14T07:25:02.797Z,15.00
2023-05-14T07:27:31.222Z,15.20
2023-05-14T07:29:58.807Z,15.30
2023-05-14T07:32:26.421Z,15.40
2023-05-14T07:34:54.068Z,15.50
2023-05-14T07:48:14.299Z,16.50
2023-05-14T07:50:42.098Z,16.80
2023-05-14T08:00:57.715Z,17.50
2023-05-14T08:04:03.480Z,17.80
2023-05-14T08:06:31.301Z,17.80
2023-05-14T08:08:59.246Z,18.00
2023-05-14T08:12:13.295Z,18.10
2023-05-14T08:14:41.224Z,18.20
2023-05-14T08:17:09.068Z,18.30
2023-05-14T08:19:54.203Z,18.40
2023-05-14T08:22:21.856Z,18.30
2023-05-14T08:24:49.633Z,18.30
2023-05-14T08:27:17.435Z,18.40
2023-05-14T08:29:45.012Z,18.40
2023-05-14T08:32:41.342Z,18.50
2023-05-14T08:38:40.719Z,18.80
2023-05-14T08:44:47.817Z,18.90
2023-05-14T08:47:18.016Z,19.20
2023-05-14T08:50:34.117Z,19.40
2023-05-14T09:04:01.574Z,20.10
2023-05-14T09:07:15.666Z,20.40
2023-05-14T09:10:02.083Z,20.70
2023-05-14T09:24:09.395Z,21.20
2023-05-14T09:30:13.869Z,21.50
2023-05-14T09:36:21.628Z,21.80
2023-05-14T09:38:49.380Z,21.30
2023-05-14T09:41:17.188Z,21.10
2023-05-14T09:43:47.958Z,20.90
2023-05-14T09:46:16.536Z,20.90
2023-05-14T09:48:45.580Z,20.90
2023-05-14T09:51:13.761Z,20.90
2023-05-14T09:53:43.947Z,20.90
2023-05-14T09:56:11.703Z,20.90
2023-05-14T09:58:39.445Z,21.00
2023-05-14T10:01:07.455Z,21.10
2023-05-14T10:03:36.118Z,21.10
2023-05-14T10:06:06.664Z,21.20
2023-05-14T10:08:36.299Z,21.10
2023-05-14T10:11:12.206Z,20.90
2023-05-14T10:13:42.786Z,20.80
2023-05-14T10:16:52.201Z,20.80
2023-05-14T10:19:22.958Z,20.80
2023-05-14T10:22:01.633Z,20.70
2023-05-14T10:24:33.120Z,20.60
2023-05-14T10:27:03.954Z,20.50
2023-05-14T10:29:36.538Z,20.50
2023-05-14T10:32:08.733Z,20.50
2023-05-14T10:34:46.111Z,20.50
2023-05-14T10:45:27.241Z,20.80
2023-05-14T10:48:12.711Z,20.80
2023-05-14T11:04:58.641Z,21.00
2023-05-14T11:08:00.832Z,21.30
2023-05-14T11:11:06.444Z,21.70
2023-05-14T11:13:34.750Z,22.00
2023-05-14T11:16:30.824Z,22.30
2023-05-14T11:19:05.417Z,22.60
2023-05-14T11:21:33.423Z,22.80
2023-05-14T11:24:11.831Z,22.80
2023-05-14T11:30:30.528Z,22.70
2023-05-14T11:39:37.740Z,23.00
2023-05-14T11:45:39.787Z,23.10
2023-05-14T11:55:26.321Z,23.20
2023-05-14T11:58:28.668Z,23.10
2023-05-14T12:00:57.052Z,23.00
2023-05-14T12:03:30.227Z,22.90
2023-05-14T12:06:08.940Z,23.00
2023-05-14T12:08:37.752Z,23.00
2023-05-14T12:11:05.577Z,23.00
2023-05-14T12:13:33.266Z,23.10
2023-05-14T12:16:11.513Z,23.10
2023-05-14T12:19:10.412Z,22.90
2023-05-14T12:21:39.305Z,23.10
2023-05-14T12:24:16.337Z,23.30
2023-05-14T12:26:55.665Z,23.40
2023-05-14T12:29:23.802Z,23.60
2023-05-14T12:31:51.932Z,23.50
2023-05-14T12:34:19.685Z,23.40
2023-05-14T12:37:18.672Z,23.30
2023-05-14T12:47:04.043Z,23.20
2023-05-14T12:49:53.603Z,23.10
2023-05-14T12:52:36.154Z,23.00
2023-05-14T12:55:56.572Z,22.80
2023-05-14T12:58:24.314Z,22.50
2023-05-14T13:00:51.985Z,22.40
2023-05-14T13:03:19.833Z,22.30
2023-05-14T13:05:47.516Z,22.30
2023-05-14T13:08:17.864Z,22.30
2023-05-14T13:10:45.604Z,22.10
2023-05-14T13:13:15.291Z,21.90
2023-05-14T13:15:43.121Z,21.80
2023-05-14T13:18:10.759Z,21.70
2023-05-14T13:20:38.655Z,21.60
2023-05-14T13:23:06.539Z,21.60
2023-05-14T13:25:34.482Z,21.40
2023-05-14T13:28:08.523Z,21.30
2023-05-14T13:30:36.571Z,21.30
2023-05-14T13:33:04.679Z,21.40
2023-05-14T13:35:32.860Z,21.40
2023-05-14T13:38:00.640Z,21.40
2023-05-14T13:40:28.372Z,21.50
2023-05-14T13:42:56.048Z,21.50
2023-05-14T13:45:24.165Z,21.40
2023-05-14T13:47:52.010Z,21.50
2023-05-14T13:50:22.199Z,21.50
2023-05-14T13:52:49.828Z,21.50
2023-05-14T13:55:17.888Z,21.70
2023-05-14T13:57:45.749Z,21.80
2023-05-14T14:00:15.885Z,21.90
2023-05-14T14:02:43.880Z,21.80
2023-05-14T14:05:11.661Z,21.90
2023-05-14T14:07:41.079Z,22.00
2023-05-14T14:10:09.423Z,22.20
2023-05-14T14:12:37.280Z,22.30
2023-05-14T14:15:06.225Z,22.30
2023-05-14T14:17:34.951Z,22.20
2023-05-14T14:20:06.221Z,22.30
2023-05-14T14:22:34.480Z,22.30
2023-05-14T14:25:02.517Z,22.40
2023-05-14T14:27:34.931Z,22.40
2023-05-14T14:30:02.969Z,22.30
2023-05-14T14:32:30.884Z,22.40
2023-05-14T14:34:58.681Z,22.40
2023-05-14T14:37:31.805Z,22.30
2023-05-14T14:40:00.369Z,22.20
2023-05-14T14:42:30.054Z,22.10
2023-05-14T14:45:00.177Z,21.90
2023-05-14T14:47:37.470Z,21.80
2023-05-14T14:50:14.027Z,21.60
2023-05-14T14:52:48.196Z,21.40
2023-05-14T14:55:16.193Z,21.30
2023-05-14T14:57:46.173Z,21.30
2023-05-14T15:00:14.999Z,21.20
2023-05-14T15:02:44.490Z,21.10
2023-05-14T15:05:12.165Z,21.00
2023-05-14T15:07:39.974Z,20.90
2023-05-14T15:10:08.234Z,20.80
2023-05-14T15:12:36.333Z,20.60
2023-05-14T15:15:04.195Z,20.50
2023-05-14T15:17:31.929Z,20.30
2023-05-14T15:19:59.538Z,20.20
2023-05-14T15:22:27.338Z,20.10
2023-05-14T15:24:55.073Z,20.00
2023-05-14T15:27:22.895Z,19.80
2023-05-14T15:29:50.587Z,19.80
2023-05-14T15:32:18.457Z,19.70
2023-05-14T15:34:46.096Z,19.60
2023-05-14T15:37:13.696Z,19.50
2023-05-14T15:39:41.402Z,19.50
2023-05-14T15:42:09.060Z,19.40
2023-05-14T15:44:38.814Z,19.30
2023-05-14T15:47:06.871Z,19.30
2023-05-14T15:49:34.424Z,19.30
2023-05-14T15:52:02.876Z,19.20
2023-05-14T15:54:30.944Z,19.10
2023-05-14T15:56:58.533Z,19.10
2023-05-14T15:59:26.257Z,19.10
2023-05-14T16:01:54.229Z,19.10
2023-05-14T16:04:21.824Z,19.10
2023-05-14T16:06:49.617Z,19.10
2023-05-14T16:09:17.348Z,19.10
2023-05-14T16:11:44.971Z,19.10
2023-05-14T16:14:12.627Z,19.20
2023-05-14T16:16:40.282Z,19.30
2023-05-14T16:19:08.227Z,19.30
2023-05-14T16:21:36.112Z,19.30
2023-05-14T16:24:06.034Z,19.30
2023-05-14T16:26:33.827Z,19.20
2023-05-14T16:29:01.594Z,19.10
2023-05-14T16:31:29.297Z,19.00
2023-05-14T16:33:57.418Z,18.90
2023-05-14T16:36:26.638Z,18.80
2023-05-14T16:39:06.902Z,18.60
2023-05-14T16:41:38.253Z,18.60
2023-05-14T16:44:05.983Z,18.50
2023-05-14T16:46:34.113Z,18.50
2023-05-14T16:49:02.516Z,18.40
2023-05-14T16:51:30.176Z,18.30
2023-05-14T16:53:57.930Z,18.30
2023-05-14T16:56:26.585Z,18.30
2023-05-14T16:58:54.430Z,18.30
2023-05-14T17:01:22.121Z,18.10
2023-05-14T17:03:49.777Z,17.90
2023-05-14T17:06:17.352Z,17.80
2023-05-14T17:08:45.106Z,17.60
2023-05-14T17:11:12.839Z,17.50
2023-05-14T17:13:40.416Z,17.30
2023-05-14T17:16:08.126Z,17.10
2023-05-14T17:18:35.881Z,16.90
2023-05-14T17:21:05.863Z,16.70
2023-05-14T17:23:33.832Z,16.60
2023-05-14T17:26:01.437Z,16.40
2023-05-14T17:28:30.109Z,16.30
2023-05-14T17:30:57.948Z,16.10
2023-05-14T17:33:25.665Z,15.90
2023-05-14T17:35:53.412Z,15.60
2023-05-14T17:38:21.167Z,15.30
2023-05-14T17:40:48.910Z,15.10
2023-05-14T17:43:16.522Z,14.90
2023-05-14T17:45:54.035Z,14.80
2023-05-14T17:48:24.086Z,14.40
2023-05-14T17:50:52.128Z,14.30
2023-05-14T17:53:19.931Z,14.20
2023-05-14T17:55:47.912Z,14.30
2023-05-14T17:58:16.088Z,14.30
2023-05-14T18:00:44.163Z,14.40
2023-05-14T18:03:12.036Z,14.50
2023-05-14T18:05:39.896Z,14.50
2023-05-14T18:08:08.851Z,14.40
2023-05-14T18:10:36.450Z,14.10
2023-05-14T18:13:03.979Z,13.90
